createdAt,value
2018-04-28T02:04:19.796Z,100513.80
2018-04-28T02:07:08.166Z,100515.91
2018-04-28T02:09:37.897Z,100518.50
2018-04-28T02:12:14.297Z,100517.75
2018-04-28T02:28:29.035Z,100532.43
2018-04-28T02:31:09.113Z,100530.52
2018-04-28T02:33:39.093Z,100523.94
2018-04-28T02:36:21.110Z,100527.52
2018-04-28T02:38:51.263Z,100526.28
2018-04-28T02:41:30.349Z,100524.27
2018-04-28T02:44:01.936Z,100525.78
2018-04-28T02:46:42.568Z,100524.27
2018-04-28T02:49:20.462Z,100527.56
2018-04-28T02:51:53.535Z,100524.63
2018-04-28T02:54:26.125Z,100530.23
2018-04-28T02:56:55.406Z,100532.19
2018-04-28T02:59:40.408Z,100533.22
2018-04-28T03:02:10.846Z,100532.86
2018-04-28T03:04:40.663Z,100529.83
2018-04-28T03:07:14.044Z,100536.89
2018-04-28T03:09:43.192Z,100538.70
2018-04-28T03:12:11.810Z,100535.08
2018-04-28T03:14:46.374Z,100535.71
2018-04-28T03:17:15.847Z,100537.53
2018-04-28T03:19:44.702Z,100540.14
2018-04-28T03:22:19.873Z,100541.06
2018-04-28T03:24:50.065Z,100539.13
2018-04-28T03:27:31.255Z,100540.09
2018-04-28T03:30:03.672Z,100539.73
2018-04-28T03:32:48.403Z,100543.02
2018-04-28T03:35:18.457Z,100544.44
2018-04-28T03:51:11.654Z,100548.23
2018-04-28T03:53:57.961Z,100555.57
2018-04-28T03:56:28.317Z,100549.48
2018-04-28T03:59:08.628Z,100552.78
2018-04-28T04:01:49.586Z,100553.20
2018-04-28T04:04:38.758Z,100556.00
2018-04-28T04:07:20.585Z,100557.00
2018-04-28T04:09:53.553Z,100558.34
2018-04-28T04:12:43.347Z,100552.69
2018-04-28T04:15:18.181Z,100559.96
2018-04-28T04:17:58.226Z,100562.04
2018-04-28T04:34:03.484Z,100571.06
2018-04-28T04:36:38.060Z,100574.25
2018-04-28T04:39:11.238Z,100581.12
2018-04-28T04:41:50.380Z,100581.16
2018-04-28T04:44:42.744Z,100581.12
2018-04-28T04:47:23.219Z,100579.87
2018-04-28T05:03:34.369Z,100578.17
2018-04-28T05:19:56.937Z,100591.33
2018-04-28T05:22:35.348Z,100594.95
2018-04-28T05:39:05.601Z,100621.59
2018-04-28T05:55:39.151Z,100636.48
2018-04-28T05:58:20.081Z,100638.04
2018-04-28T06:01:04.450Z,100632.87
2018-04-28T06:03:42.482Z,100637.94
2018-04-28T06:06:23.354Z,100640.83
2018-04-28T06:09:00.521Z,100646.58
2018-04-28T06:25:15.363Z,100659.51
2018-04-28T06:27:44.472Z,100670.27
2018-04-28T06:30:14.161Z,100672.41
2018-04-28T06:32:43.668Z,100672.84
2018-04-28T06:35:12.773Z,100667.44
2018-04-28T06:37:41.883Z,100671.48
2018-04-28T06:40:10.868Z,100679.06
2018-04-28T06:42:39.968Z,100678.04
2018-04-28T06:45:09.073Z,100684.02
2018-04-28T06:47:38.652Z,100690.20
2018-04-28T06:50:07.753Z,100687.64
2018-04-28T06:52:36.863Z,100683.16
2018-04-28T06:55:06.357Z,100688.59
2018-04-28T06:57:35.479Z,100688.30
2018-04-28T07:00:10.385Z,100691.78
2018-04-28T07:02:44.825Z,100691.02
2018-04-28T07:05:13.972Z,100692.34
2018-04-28T07:07:43.681Z,100692.77
2018-04-28T07:10:12.795Z,100699.18
2018-04-28T07:12:42.106Z,100701.05
2018-04-28T07:15:11.306Z,100691.80
2018-04-28T07:17:40.447Z,100694.37
2018-04-28T07:20:09.889Z,100698.32
2018-04-28T07:22:38.995Z,100702.40
2018-04-28T07:25:08.112Z,100701.17
2018-04-28T07:27:37.610Z,100698.84
2018-04-28T07:30:12.241Z,100707.42
2018-04-28T07:32:41.714Z,100703.38
2018-04-28T07:35:10.827Z,100708.78
2018-04-28T07:37:39.974Z,100700.69
2018-04-28T07:40:09.430Z,100704.80
2018-04-28T07:42:38.548Z,100700.41
2018-04-28T07:45:07.679Z,100707.22
2018-04-28T07:47:37.133Z,100706.33
2018-04-28T07:50:06.423Z,100707.81
2018-04-28T07:52:35.566Z,100705.79
2018-04-28T07:55:04.512Z,100712.08
2018-04-28T07:57:33.645Z,100705.36
2018-04-28T08:00:02.818Z,100713.52
2018-04-28T08:02:32.324Z,100713.58
2018-04-28T08:05:02.049Z,100720.59
2018-04-28T08:07:31.253Z,100723.32
2018-04-28T08:10:00.584Z,100718.81
2018-04-28T08:12:29.721Z,100726.75
2018-04-28T08:14:59.527Z,100715.88
2018-04-28T08:17:29.049Z,100718.48
2018-04-28T08:19:58.629Z,100720.69
2018-04-28T08:22:27.757Z,100713.52
2018-04-28T08:24:58.109Z,100716.58
2018-04-28T08:27:27.221Z,100717.93
2018-04-28T08:29:56.113Z,100726.19
2018-04-28T08:32:26.337Z,100721.78
2018-04-28T08:34:55.393Z,100725.98
2018-04-28T08:37:24.608Z,100730.55
2018-04-28T08:39:54.266Z,100725.72
2018-04-28T08:42:23.464Z,100735.03
2018-04-28T08:44:52.353Z,100733.68
2018-04-28T08:47:21.868Z,100736.53
2018-04-28T08:49:50.979Z,100740.12
2018-04-28T08:52:20.972Z,100737.09
2018-04-28T08:54:50.577Z,100745.17
2018-04-28T08:57:19.607Z,100744.59
2018-04-28T09:13:21.986Z,100766.16
2018-04-28T09:15:51.157Z,100761.30
2018-04-28T09:18:20.329Z,100762.64
2018-04-28T09:20:49.830Z,100771.06
2018-04-28T09:23:18.948Z,100764.39
2018-04-28T09:25:48.134Z,100775.20
2018-04-28T09:28:17.548Z,100776.62
2018-04-28T09:30:46.693Z,100770.80
2018-04-28T09:33:15.815Z,100775.85
2018-04-28T09:35:45.526Z,100773.58
2018-04-28T09:38:14.641Z,100782.37
2018-04-28T09:40:43.826Z,100774.25
2018-04-28T09:43:13.274Z,100777.59
2018-04-28T09:45:42.433Z,100773.86
2018-04-28T09:48:11.563Z,100772.78
2018-04-28T09:50:41.114Z,100770.97
2018-04-28T09:53:10.316Z,100774.56
2018-04-28T09:55:39.430Z,100787.34
2018-04-28T09:58:08.940Z,100780.94
2018-04-28T10:00:56.658Z,100788.27
2018-04-28T10:03:31.036Z,100792.28
2018-04-28T10:06:00.427Z,100789.18
2018-04-28T10:08:29.728Z,100794.80
2018-04-28T10:10:59.896Z,100791.51
2018-04-28T10:13:29.062Z,100791.88
2018-04-28T10:15:58.738Z,100798.62
2018-04-28T10:18:28.317Z,100802.30
2018-04-28T10:20:57.437Z,100796.14
2018-04-28T10:23:26.568Z,100800.03
2018-04-28T10:25:56.109Z,100801.53
2018-04-28T10:28:25.221Z,100797.00
2018-04-28T10:30:54.354Z,100800.98
2018-04-28T10:33:23.919Z,100801.87
2018-04-28T10:35:53.046Z,100797.85
2018-04-28T10:38:22.171Z,100805.45
2018-04-28T10:40:51.657Z,100803.67
2018-04-28T10:43:20.786Z,100812.81
2018-04-28T10:45:49.864Z,100808.36
2018-04-28T10:48:19.184Z,100801.26
2018-04-28T10:50:48.331Z,100805.05
2018-04-28T10:53:17.442Z,100797.42
2018-04-28T10:55:47.005Z,100798.89
2018-04-28T10:58:16.126Z,100804.75
2018-04-28T11:00:45.110Z,100798.74
2018-04-28T11:03:14.585Z,100800.67
2018-04-28T11:05:43.757Z,100801.04
2018-04-28T11:08:12.886Z,100807.29
2018-04-28T11:10:42.456Z,100804.31
2018-04-28T11:13:11.642Z,100805.48
2018-04-28T11:15:40.968Z,100802.87
2018-04-28T11:18:10.498Z,100813.14
2018-04-28T11:20:39.612Z,100814.16
2018-04-28T11:23:08.738Z,100815.44
2018-04-28T11:25:38.362Z,100820.89
2018-04-28T11:28:07.611Z,100825.86
2018-04-28T11:30:36.736Z,100821.41
2018-04-28T11:33:06.065Z,100830.18
2018-04-28T11:35:35.188Z,100836.52
2018-04-28T11:38:04.298Z,100836.16
2018-04-28T11:40:33.449Z,100838.76
2018-04-28T11:43:02.584Z,100833.95
2018-04-28T11:45:31.699Z,100834.80
2018-04-28T11:48:00.908Z,100838.45
2018-04-28T11:50:30.214Z,100844.18
2018-04-28T11:52:59.628Z,100838.91
2018-04-28T11:55:29.055Z,100841.55
2018-04-28T11:57:58.919Z,100841.98
2018-04-28T12:00:28.072Z,100833.55
2018-04-28T12:02:58.080Z,100840.20
2018-04-28T12:05:27.204Z,100838.78
2018-04-28T12:07:56.314Z,100842.98
2018-04-28T12:10:25.770Z,100836.24
2018-04-28T12:12:54.885Z,100841.48
2018-04-28T12:15:24.023Z,100844.30
2018-04-28T12:17:53.899Z,100835.30
2018-04-28T12:20:23.036Z,100836.67
2018-04-28T12:22:52.171Z,100841.64
2018-04-28T12:25:21.337Z,100845.80
2018-04-28T12:27:50.459Z,100840.41
2018-04-28T12:30:19.566Z,100843.53
2018-04-28T12:32:48.723Z,100842.95
2018-04-28T12:35:17.841Z,100849.57
2018-04-28T12:37:46.997Z,100854.41
2018-04-28T12:40:15.997Z,100845.41
2018-04-28T12:42:45.121Z,100849.03
2018-04-28T12:45:14.281Z,100837.84
2018-04-28T12:47:43.774Z,100845.34
2018-04-28T12:50:12.900Z,100841.30
2018-04-28T12:52:42.047Z,100844.18
2018-04-28T12:55:11.548Z,100838.27
2018-04-28T12:57:41.353Z,100846.78
2018-04-28T13:00:10.510Z,100846.78
2018-04-28T13:02:39.643Z,100838.76
2018-04-28T13:05:08.862Z,100849.70
2018-04-28T13:07:38.006Z,100846.45
2018-04-28T13:10:07.340Z,100836.22
2018-04-28T13:12:36.477Z,100831.92
2018-04-28T13:15:05.607Z,100842.49
2018-04-28T13:17:35.953Z,100850.16
2018-04-28T13:20:05.091Z,100847.58
2018-04-28T13:22:34.297Z,100847.89
2018-04-28T13:25:03.761Z,100848.50
2018-04-28T13:27:32.909Z,100842.21
2018-04-28T13:30:02.034Z,100847.23
2018-04-28T13:32:31.349Z,100849.02
2018-04-28T13:35:01.466Z,100853.55
2018-04-28T13:37:30.706Z,100862.92
2018-04-28T13:40:00.472Z,100857.53
2018-04-28T13:42:29.593Z,100851.86
2018-04-28T13:44:59.894Z,100859.73
2018-04-28T13:47:29.147Z,100855.62
2018-04-28T13:49:58.778Z,100868.16
2018-04-28T13:52:27.914Z,100866.33
2018-04-28T13:54:57.124Z,100864.00
2018-04-28T13:57:26.273Z,100863.28
2018-04-28T13:59:55.468Z,100870.52
2018-04-28T14:02:24.772Z,100877.69
2018-04-28T14:04:53.893Z,100869.66
2018-04-28T14:07:23.033Z,100868.68
2018-04-28T14:09:52.471Z,100867.82
2018-04-28T14:12:21.669Z,100870.37
2018-04-28T14:14:51.253Z,100873.12
2018-04-28T14:17:20.223Z,100870.03
2018-04-28T14:19:49.354Z,100871.31
2018-04-28T14:22:18.477Z,100874.56
2018-04-28T14:24:47.981Z,100875.84
2018-04-28T14:27:16.873Z,100875.33
2018-04-28T14:29:46.016Z,100870.73
2018-04-28T14:32:15.462Z,100872.94
2018-04-28T14:34:44.722Z,100865.89
2018-04-28T14:37:13.836Z,100863.63
2018-04-28T14:39:48.792Z,100866.27
2018-04-28T14:42:22.906Z,100871.66
2018-04-28T14:44:52.414Z,100870.09
2018-04-28T14:47:22.065Z,100879.44
2018-04-28T14:49:51.167Z,100868.38
2018-04-28T14:52:20.717Z,100864.27
2018-04-28T14:54:50.153Z,100870.22
2018-04-28T14:57:19.290Z,100872.36
2018-04-28T14:59:48.417Z,100872.94
2018-04-28T15:02:17.538Z,100871.94
2018-04-28T15:04:46.686Z,100874.69
2018-04-28T15:07:16.128Z,100869.81
2018-04-28T15:09:45.326Z,100870.73
2018-04-28T15:12:14.578Z,100873.34
2018-04-28T15:14:44.112Z,100866.66
2018-04-28T15:17:13.237Z,100868.87
2018-04-28T15:19:42.403Z,100871.08
2018-04-28T15:22:11.927Z,100880.45
2018-04-28T15:24:41.111Z,100876.09
2018-04-28T15:27:10.086Z,100882.38
2018-04-28T15:29:39.568Z,100881.92
2018-04-28T15:32:08.703Z,100892.16
2018-04-28T15:34:37.830Z,100891.38
2018-04-28T15:37:06.998Z,100883.48
2018-04-28T15:39:36.121Z,100884.50
2018-04-28T15:42:05.245Z,100887.31
2018-04-28T15:44:34.683Z,100884.90
2018-04-28T15:47:03.791Z,100883.12
2018-04-28T15:49:32.903Z,100882.38
2018-04-28T15:52:07.607Z,100883.64
2018-04-28T15:54:36.717Z,100885.81
2018-04-28T15:57:05.829Z,100888.94
2018-04-28T15:59:35.306Z,100886.39
2018-04-28T16:02:04.314Z,100890.93
2018-04-28T16:04:33.497Z,100893.71
2018-04-28T16:07:03.106Z,100893.34
2018-04-28T16:09:32.326Z,100886.11
2018-04-28T16:12:01.605Z,100895.42
2018-04-28T16:14:30.918Z,100897.27
2018-04-28T16:17:01.020Z,100893.16
2018-04-28T16:19:30.377Z,100894.91
2018-04-28T16:22:00.949Z,100894.69
2018-04-28T16:24:30.448Z,100894.69
2018-04-28T16:27:00.542Z,100900.54
2018-04-28T16:29:29.681Z,100900.08
2018-04-28T16:31:59.591Z,100893.80
2018-04-28T16:34:28.757Z,100891.16
2018-04-28T16:36:58.908Z,100896.06
2018-04-28T16:39:28.509Z,100894.23
2018-04-28T16:41:57.785Z,100903.88
2018-04-28T16:44:26.905Z,100892.60
2018-04-28T16:46:56.330Z,100902.59
2018-04-28T16:49:25.748Z,100897.34
2018-04-28T16:51:54.868Z,100901.39
2018-04-28T16:54:24.317Z,100896.34
2018-04-28T16:56:53.213Z,100902.59
2018-04-28T16:59:22.345Z,100891.37
2018-04-28T17:01:51.681Z,100889.62
2018-04-28T17:04:20.782Z,100892.66
2018-04-28T17:06:49.655Z,100887.33
2018-04-28T17:09:19.094Z,100885.13
2018-04-28T17:11:48.224Z,100882.09
2018-04-28T17:14:17.377Z,100891.03
2018-04-28T17:16:46.499Z,100889.62
2018-04-28T17:19:15.600Z,100885.58
2018-04-28T17:21:44.705Z,100889.17
2018-04-28T17:24:13.837Z,100896.80
2018-04-28T17:26:43.569Z,100901.39
2018-04-28T17:29:12.689Z,100900.90
2018-04-28T17:31:42.131Z,100908.61
2018-04-28T17:34:11.314Z,100901.81
2018-04-28T17:36:40.414Z,100909.05
2018-04-28T17:39:09.757Z,100913.03
2018-04-28T17:41:38.877Z,100915.78
2018-04-28T17:44:07.977Z,100915.88
2018-04-28T17:46:37.440Z,100918.36
2018-04-28T17:49:06.551Z,100917.12
2018-04-28T17:51:35.665Z,100916.73
2018-04-28T17:54:05.151Z,100919.83
2018-04-28T17:56:34.260Z,100922.52
2018-04-28T17:59:03.423Z,100922.95
2018-04-28T18:01:32.558Z,100919.77
2018-04-28T18:04:01.673Z,100924.36
2018-04-28T18:06:30.794Z,100927.36
2018-04-28T18:09:00.220Z,100923.44
2018-04-28T18:11:29.329Z,100926.02
2018-04-28T18:13:58.430Z,100931.04
2018-04-28T18:16:27.919Z,100932.33
2018-04-28T18:18:56.792Z,100931.95
2018-04-28T18:21:25.913Z,100933.36
2018-04-28T18:23:58.247Z,100928.28
2018-04-28T18:26:27.433Z,100927.85
2018-04-28T18:28:56.713Z,100935.45
2018-04-28T18:31:25.828Z,100933.82
2018-04-28T18:33:54.701Z,100935.00
2018-04-28T18:36:24.153Z,100938.98
2018-04-28T18:38:53.258Z,100942.63
2018-04-28T18:41:22.361Z,100947.00
2018-04-28T18:43:51.868Z,100948.75
2018-04-28T18:46:20.981Z,100952.11
2018-04-28T18:48:50.301Z,100951.25
2018-04-28T18:51:19.769Z,100952.11
2018-04-28T18:53:48.873Z,100954.02
2018-04-28T18:56:17.989Z,100956.80
2018-04-28T18:58:47.462Z,100957.16
2018-04-28T19:01:16.570Z,100955.73
2018-04-28T19:03:45.682Z,100959.98
2018-04-28T19:06:15.141Z,100962.67
2018-04-28T19:08:44.015Z,100957.51
2018-04-28T19:11:12.904Z,100962.90
2018-04-28T19:13:42.335Z,100967.06
2018-04-28T19:16:11.453Z,100970.21
2018-04-28T19:18:40.659Z,100968.58
2018-04-28T19:21:10.235Z,100970.82
2018-04-28T19:23:39.341Z,100977.70
2018-04-28T19:26:08.449Z,100978.44
2018-04-28T19:28:37.917Z,100984.30
2018-04-28T19:31:07.090Z,100987.08
2018-04-28T19:33:36.447Z,100985.19
2018-04-28T19:36:05.941Z,100995.66
2018-04-28T19:38:35.052Z,100998.38
2018-04-28T19:41:03.924Z,101000.06
2018-04-28T19:43:33.425Z,101009.63
2018-04-28T19:46:02.537Z,101002.91
2018-04-28T19:48:31.754Z,101005.09
2018-04-28T19:51:01.285Z,101006.86
2018-04-28T19:53:30.389Z,101004.55
2018-04-28T19:55:59.285Z,101006.92
2018-04-28T19:58:28.816Z,101005.45
2018-04-28T20:00:58.520Z,101009.98
2018-04-28T20:03:27.410Z,101009.78
2018-04-28T20:05:56.910Z,101008.67
2018-04-28T20:08:26.034Z,101007.44
2018-04-28T20:10:55.142Z,101014.77
2018-04-28T20:13:24.421Z,101015.26
2018-04-28T20:15:53.536Z,101011.55
2018-04-28T20:18:22.648Z,101015.97
2018-04-28T20:20:52.095Z,101015.40
2018-04-28T20:23:32.556Z,101017.03
2018-04-28T20:26:01.692Z,101011.59
2018-04-28T20:28:30.862Z,101020.53
2018-04-28T20:30:59.960Z,101015.05
2018-04-28T20:33:29.459Z,101014.56
2018-04-28T20:35:58.719Z,101016.69
2018-04-28T20:38:27.962Z,101014.77
2018-04-28T20:40:57.498Z,101014.70
2018-04-28T20:43:26.611Z,101015.07
2018-04-28T20:45:55.709Z,101015.99
2018-04-28T20:48:25.145Z,101019.95
2018-04-28T20:50:54.279Z,101018.89
2018-04-28T20:53:23.383Z,101019.03
2018-04-28T20:55:52.856Z,101012.23
2018-04-28T20:58:22.164Z,101011.59
2018-04-28T21:00:51.454Z,101013.28
2018-04-28T21:03:20.901Z,101011.94
2018-04-28T21:05:50.015Z,101012.80
2018-04-28T21:08:19.135Z,101015.92
2018-04-28T21:10:48.794Z,101016.75
2018-04-28T21:13:17.913Z,101014.39
2018-04-28T21:15:47.013Z,101016.17
2018-04-28T21:18:16.146Z,101012.98
2018-04-28T21:20:45.248Z,101012.55
2018-04-28T21:23:14.359Z,101012.98
2018-04-28T21:25:43.721Z,101008.94
2018-04-28T21:28:12.822Z,101009.73
2018-04-28T21:30:41.941Z,101008.88
2018-04-28T21:33:11.431Z,101003.89
2018-04-28T21:35:40.537Z,101002.42
2018-04-28T21:38:09.673Z,101008.80
2018-04-28T21:40:39.331Z,101009.59
2018-04-28T21:43:08.438Z,101006.47
2018-04-28T21:45:37.606Z,101005.67
2018-04-28T21:48:07.027Z,101003.28
2018-04-28T21:50:36.129Z,101003.68
2018-04-28T21:53:04.982Z,101006.95
2018-04-28T21:55:34.477Z,101002.91
2018-04-28T21:58:03.582Z,101002.91
2018-04-28T22:00:32.439Z,101009.72
2018-04-28T22:03:01.847Z,101010.94
2018-04-28T22:05:30.947Z,101010.08
2018-04-28T22:08:00.053Z,101006.52
2018-04-28T22:10:29.178Z,100999.23
2018-04-28T22:12:58.283Z,100997.86
2018-04-28T22:15:27.457Z,101001.50
2018-04-28T22:17:56.771Z,101004.59
2018-04-28T22:20:25.877Z,101003.62
2018-04-28T22:22:55.075Z,100995.19
2018-04-28T22:25:24.569Z,100992.89
2018-04-28T22:27:53.681Z,100997.86
2018-04-28T22:30:22.789Z,101001.84
2018-04-28T22:32:52.265Z,101001.32
2018-04-28T22:35:21.397Z,101004.97
2018-04-28T22:37:50.493Z,100996.38
2018-04-28T22:40:19.958Z,100991.54
2018-04-28T22:42:49.093Z,100994.17
2018-04-28T22:45:18.207Z,100995.19
2018-04-28T22:47:47.643Z,100988.30
2018-04-28T22:50:16.761Z,100985.28
2018-04-28T22:52:45.884Z,100993.69
2018-04-28T22:55:18.333Z,101003.25
2018-04-28T22:57:47.437Z,101008.52
2018-04-28T23:00:16.609Z,101009.45
2018-04-28T23:02:45.717Z,101015.33
2018-04-28T23:05:14.830Z,101023.05
2018-04-28T23:07:43.957Z,101016.59
2018-04-28T23:10:13.060Z,101015.98
2018-04-28T23:12:42.174Z,101015.61
2018-04-28T23:15:11.509Z,101011.93
2018-04-28T23:17:40.618Z,101015.18
2018-04-28T23:20:09.745Z,101025.91
2018-04-28T23:22:39.097Z,101020.09
2018-04-28T23:25:08.280Z,101024.53
2018-04-28T23:27:37.412Z,101023.55
2018-04-28T23:30:06.877Z,101020.86
2018-04-28T23:32:36.015Z,101019.02
2018-04-28T23:35:05.121Z,101020.48
2018-04-28T23:37:34.580Z,101009.23
2018-04-28T23:40:03.691Z,101008.80
2018-04-28T23:42:32.829Z,101002.46
2018-04-28T23:45:02.250Z,101007.37
2018-04-28T23:47:31.401Z,101001.11
2018-04-28T23:50:01.189Z,101009.64
2018-04-28T23:52:30.277Z,101006.02
2018-04-28T23:54:59.211Z,101004.67
2018-04-28T23:57:28.336Z,101006.39
2018-04-28T23:59:58.422Z,101001.89
